Terminal Aerodrome Forecast
Issued by NWS

Home | Current Version | Previous Version | Text Only | Print | Product List | Glossary On
Versions: 1 2 3 4 5 6 7 8 9 10 11 12 13 14 15 16 17 18 19 20 21 22 23 24 25 26 27 28 29 30 31 32 33 34 35 36 37 38 39 40 41 42 43 44 45 46 47 48 49
000
FTUS45 KBOU 272213 AAB
TAFBJC
TAF AMD
KBJC 272213Z 2722/2818 32006KT P6SM SCT045 BKN120
     FM272300 35006KT P6SM VCSH BKN040 BKN100
      TEMPO 2800/2802 VRB15G25KT -TSRA BKN040CB
     FM280200 28008KT P6SM VCSH SCT050 BKN070
     FM280600 33007KT P6SM FEW070 SCT120 BKN200
     FM281200 VRB03KT P6SM SCT008 BKN020
     FM281600 24006KT P6SM FEW025 BKN040=

USA.gov is the U.S. government's official web portal to all federal, state and local government web resources and services.